Time;durP1;ratioP1;P1;durP2;ratioP2;P2;SDS_P1;SDS_P2;PMS_P1;PMS_P2;Temp;Humidity;BMP_temperature;BMP_pressure;BME280_temperature;BME280_humidity;BME280_pressure;Samples;Min_cycle;Max_cycle;Signal;HPM_P1;HPM_P2
2023/04/25 02:04:37;;;;;;;1999.90;999.90;;;;;;;;;;6217085;22;1251931;-62
2023/04/25 02:07:22;;;;;;;1999.90;999.90;;;;;;;;;;6305725;22;20368;-66
2023/04/25 02:10:08;;;;;;;1999.90;999.90;;;;;;;;;;6305323;22;20623;-62
2023/04/25 02:12:53;;;;;;;1999.90;999.90;;;;;;;;;;6297986;22;20545;-67
2023/04/25 02:15:37;;;;;;;1999.90;999.90;;;;;;;;;;6274670;22;20184;-67
2023/04/25 02:18:22;;;;;;;1999.90;999.90;;;;;;;;;;6274580;22;20223;-63
2023/04/25 02:21:09;;;;;;;1999.90;999.90;;;;;;;;;;6274385;22;20632;-66
2023/04/25 02:23:54;;;;;;;1999.90;999.90;;;;;;;;;;6274244;22;20276;-66
2023/04/25 02:26:39;;;;;;;1999.90;999.90;;;;;;;;;;6274814;22;20167;-65
2023/04/25 02:29:24;;;;;;;1999.90;999.90;;;;;;;;;;6274840;22;20499;-63
2023/04/25 02:32:09;;;;;;;1999.90;999.90;;;;;;;;;;6275431;22;20184;-65
2023/04/25 02:34:54;;;;;;;1999.90;999.90;;;;;;;;;;6274536;22;20166;-63
2023/04/25 02:37:41;;;;;;;1999.90;999.90;;;;;;;;;;6274746;22;20166;-66
2023/04/25 02:40:26;;;;;;;1999.90;999.90;;;;;;;;;;6274637;22;20174;-65
2023/04/25 02:43:11;;;;;;;1999.90;999.90;;;;;;;;;;6274664;22;20524;-66
2023/04/25 02:45:56;;;;;;;1999.90;999.90;;;;;;;;;;6274569;22;20694;-66
2023/04/25 02:48:41;;;;;;;1999.90;999.90;;;;;;;;;;6274666;22;20275;-67
2023/04/25 02:51:26;;;;;;;1999.90;999.90;;;;;;;;;;6274556;22;20165;-67
2023/04/25 02:54:13;;;;;;;1999.90;999.90;;;;;;;;;;6273550;22;20265;-66
2023/04/25 02:56:58;;;;;;;1999.90;999.90;;;;;;;;;;6274493;22;20198;-66
2023/04/25 02:59:43;;;;;;;1999.90;999.90;;;;;;;;;;6275255;22;20186;-65
2023/04/25 03:02:28;;;;;;;1999.90;999.90;;;;;;;;;;6276187;22;20171;-66
2023/04/25 03:05:13;;;;;;;1999.90;999.90;;;;;;;;;;6275773;22;20176;-62
2023/04/25 03:07:58;;;;;;;1999.90;999.90;;;;;;;;;;6276439;22;20169;-65
2023/04/25 03:10:45;;;;;;;1999.90;999.90;;;;;;;;;;6276290;22;20630;-66
2023/04/25 03:13:30;;;;;;;1999.90;999.90;;;;;;;;;;6276085;22;20330;-65
2023/04/25 03:16:15;;;;;;;1999.90;999.90;;;;;;;;;;6276400;22;20273;-65
2023/04/25 03:19:00;;;;;;;1999.90;999.90;;;;;;;;;;6276323;22;20167;-65
2023/04/25 03:21:46;;;;;;;1999.90;999.90;;;;;;;;;;6276177;22;20174;-66
2023/04/25 03:24:31;;;;;;;1999.90;999.90;;;;;;;;;;6275953;22;20247;-63
2023/04/25 03:27:17;;;;;;;1999.90;999.90;;;;;;;;;;6276371;22;20257;-66
2023/04/25 03:30:02;;;;;;;1999.90;999.90;;;;;;;;;;6276033;22;20172;-66
2023/04/25 03:32:47;;;;;;;1999.90;999.90;;;;;;;;;;6276043;22;20206;-67
2023/04/25 03:35:32;;;;;;;1999.90;999.90;;;;;;;;;;6276033;22;20391;-64
2023/04/25 03:38:17;;;;;;;1999.90;999.90;;;;;;;;;;6276189;22;20251;-67
2023/04/25 03:41:02;;;;;;;1999.90;999.90;;;;;;;;;;6275980;22;20169;-67
2023/04/25 03:43:49;;;;;;;1999.90;999.90;;;;;;;;;;6275824;22;20203;-66
2023/04/25 03:46:34;;;;;;;1999.90;999.90;;;;;;;;;;6275971;22;20195;-67
2023/04/25 03:49:19;;;;;;;1999.90;999.90;;;;;;;;;;6275692;22;20448;-66
2023/04/25 03:52:04;;;;;;;1999.90;999.90;;;;;;;;;;6276174;22;20505;-64
2023/04/25 03:54:49;;;;;;;1999.90;999.90;;;;;;;;;;6275657;22;20244;-67
2023/04/25 03:57:34;;;;;;;1999.90;999.90;;;;;;;;;;6276094;22;20209;-65
2023/04/25 04:00:20;;;;;;;1999.90;999.90;;;;;;;;;;6275699;22;20170;-66
2023/04/25 04:03:06;;;;;;;1999.90;999.90;;;;;;;;;;6276188;22;20289;-64
2023/04/25 04:05:51;;;;;;;1999.90;999.90;;;;;;;;;;6276113;22;20221;-65
2023/04/25 04:08:37;;;;;;;1999.90;999.90;;;;;;;;;;6275768;22;20290;-64
2023/04/25 04:11:22;;;;;;;1999.90;999.90;;;;;;;;;;6275954;22;20281;-66
2023/04/25 04:14:07;;;;;;;1999.90;999.90;;;;;;;;;;6275617;22;20242;-65
2023/04/25 04:16:53;;;;;;;1999.90;999.90;;;;;;;;;;6275956;22;20622;-66
2023/04/25 04:19:38;;;;;;;1999.90;999.90;;;;;;;;;;6275933;22;20695;-66
2023/04/25 04:22:24;;;;;;;1999.90;999.90;;;;;;;;;;6275760;22;20239;-65
2023/04/25 04:25:11;;;;;;;1999.90;999.90;;;;;;;;;;6275334;22;20464;-67
2023/04/25 04:27:57;;;;;;;1999.90;999.90;;;;;;;;;;6275733;22;20367;-64
2023/04/25 04:30:42;;;;;;;1999.90;999.90;;;;;;;;;;6275532;22;20632;-62
2023/04/25 04:33:29;;;;;;;1999.90;999.90;;;;;;;;;;6275700;22;20237;-64
2023/04/25 04:36:15;;;;;;;1999.90;999.90;;;;;;;;;;6274854;22;20170;-66
2023/04/25 04:39:00;;;;;;;1999.90;999.90;;;;;;;;;;6275172;22;20487;-66
2023/04/25 04:41:45;;;;;;;1999.90;999.90;;;;;;;;;;6275647;22;20163;-65
2023/04/25 04:44:32;;;;;;;1999.90;999.90;;;;;;;;;;6274948;22;20196;-66
2023/04/25 04:47:17;;;;;;;1999.90;999.90;;;;;;;;;;6275538;22;20175;-66
2023/04/25 04:50:04;;;;;;;1999.90;999.90;;;;;;;;;;6275211;22;20575;-65
2023/04/25 04:52:49;;;;;;;1999.90;999.90;;;;;;;;;;6275245;22;20282;-66
2023/04/25 04:55:34;;;;;;;1999.90;999.90;;;;;;;;;;6275006;22;20210;-66
2023/04/25 04:58:19;;;;;;;1999.90;999.90;;;;;;;;;;6275153;22;20166;-68
2023/04/25 05:01:04;;;;;;;1999.90;999.90;;;;;;;;;;6275009;22;20170;-66
2023/04/25 05:03:49;;;;;;;1999.90;999.90;;;;;;;;;;6274551;22;20283;-67
2023/04/25 05:06:35;;;;;;;1999.90;999.90;;;;;;;;;;6275179;22;20267;-64
2023/04/25 05:09:20;;;;;;;1999.90;999.90;;;;;;;;;;6275035;22;20170;-67
2023/04/25 05:12:05;;;;;;;1999.90;999.90;;;;;;;;;;6275166;22;20693;-67
2023/04/25 05:14:50;;;;;;;1999.90;999.90;;;;;;;;;;6274735;22;20274;-65
2023/04/25 05:17:35;;;;;;;1999.90;999.90;;;;;;;;;;6275129;22;20170;-65
2023/04/25 05:20:20;;;;;;;1999.90;999.90;;;;;;;;;;6274872;22;20256;-61
2023/04/25 05:23:06;;;;;;;1999.90;999.90;;;;;;;;;;6274995;22;20295;-61
2023/04/25 05:25:51;;;;;;;1999.90;999.90;;;;;;;;;;6274840;22;20217;-66
2023/04/25 05:28:37;;;;;;;1999.90;999.90;;;;;;;;;;6275098;22;20175;-64
2023/04/25 05:31:22;;;;;;;1999.90;999.90;;;;;;;;;;6274844;22;20167;-65
2023/04/25 05:34:06;;;;;;;1999.90;999.90;;;;;;;;;;6274451;22;20211;-67
2023/04/25 05:36:51;;;;;;;1999.90;999.90;;;;;;;;;;6274882;22;20170;-63
2023/04/25 05:39:38;;;;;;;1999.90;999.90;;;;;;;;;;6274693;22;20170;-65
2023/04/25 05:42:23;;;;;;;1999.90;999.90;;;;;;;;;;6274805;22;20169;-65
2023/04/25 05:45:08;;;;;;;1999.90;999.90;;;;;;;;;;6274743;22;20206;-66
2023/04/25 05:47:53;;;;;;;1999.90;999.90;;;;;;;;;;6274875;22;20821;-65
2023/04/25 05:50:38;;;;;;;1999.90;999.90;;;;;;;;;;6275348;22;20178;-66
2023/04/25 05:53:23;;;;;;;1999.90;999.90;;;;;;;;;;6274585;22;20202;-65
2023/04/25 05:56:09;;;;;;;1999.90;999.90;;;;;;;;;;6274706;22;20224;-65
2023/04/25 05:58:54;;;;;;;1999.90;999.90;;;;;;;;;;6274733;22;20170;-66
2023/04/25 06:01:40;;;;;;;1999.90;999.90;;;;;;;;;;6273424;22;20371;-66
2023/04/25 06:04:26;;;;;;;1999.90;999.90;;;;;;;;;;6274205;22;20735;-66
2023/04/25 06:07:11;;;;;;;1999.90;999.90;;;;;;;;;;6274837;22;20166;-66
2023/04/25 06:09:56;;;;;;;1999.90;999.90;;;;;;;;;;6274903;22;20677;-66
2023/04/25 06:12:42;;;;;;;1999.90;999.90;;;;;;;;;;6274583;22;20218;-66
2023/04/25 06:15:27;;;;;;;1999.90;999.90;;;;;;;;;;6272522;22;20387;-65
2023/04/25 06:18:12;;;;;;;1999.90;999.90;;;;;;;;;;6274616;22;20222;-67
2023/04/25 06:20:57;;;;;;;1999.90;999.90;;;;;;;;;;6274428;22;20178;-66
2023/04/25 06:23:42;;;;;;;1999.90;999.90;;;;;;;;;;6274378;22;20203;-67
2023/04/25 06:26:27;;;;;;;1999.90;999.90;;;;;;;;;;6274764;22;20174;-63
2023/04/25 06:29:13;;;;;;;1999.90;999.90;;;;;;;;;;6274530;22;20218;-68
2023/04/25 06:31:58;;;;;;;1999.90;999.90;;;;;;;;;;6274836;22;20250;-67
2023/04/25 06:34:42;;;;;;;1999.90;999.90;;;;;;;;;;6275156;22;20199;-68
2023/04/25 06:37:27;;;;;;;1999.90;999.90;;;;;;;;;;6273485;22;20616;-68
2023/04/25 06:40:12;;;;;;;1999.90;999.90;;;;;;;;;;6273791;22;20168;-67
2023/04/25 06:42:57;;;;;;;1999.90;999.90;;;;;;;;;;6273761;22;20200;-67
2023/04/25 06:45:43;;;;;;;1999.90;999.90;;;;;;;;;;6273486;22;20219;-68
2023/04/25 06:48:28;;;;;;;1999.90;999.90;;;;;;;;;;6273671;22;20172;-68
2023/04/25 06:51:14;;;;;;;1999.90;999.90;;;;;;;;;;6274699;22;20169;-68
2023/04/25 06:54:00;;;;;;;1999.90;999.90;;;;;;;;;;6275340;22;20199;-67
2023/04/25 06:56:45;;;;;;;1999.90;999.90;;;;;;;;;;6275533;22;20252;-67
2023/04/25 06:59:30;;;;;;;1999.90;999.90;;;;;;;;;;6274962;22;20366;-68
2023/04/25 07:02:16;;;;;;;1999.90;999.90;;;;;;;;;;6276499;22;20164;-68
2023/04/25 07:05:00;;;;;;;1999.90;999.90;;;;;;;;;;6275742;22;20605;-68
2023/04/25 07:07:45;;;;;;;1999.90;999.90;;;;;;;;;;6276404;22;20210;-68
2023/04/25 07:10:30;;;;;;;1999.90;999.90;;;;;;;;;;6275485;22;20239;-67
2023/04/25 07:13:15;;;;;;;1999.90;999.90;;;;;;;;;;6275144;22;20286;-68
2023/04/25 07:16:00;;;;;;;1999.90;999.90;;;;;;;;;;6275161;22;20242;-67
2023/04/25 07:18:46;;;;;;;1999.90;999.90;;;;;;;;;;6274763;22;20168;-68
2023/04/25 07:21:32;;;;;;;1999.90;999.90;;;;;;;;;;6275063;22;20164;-68
2023/04/25 07:24:17;;;;;;;1999.90;999.90;;;;;;;;;;6274935;22;20534;-68
2023/04/25 07:27:02;;;;;;;1999.90;999.90;;;;;;;;;;6275453;22;20244;-68
2023/04/25 07:29:47;;;;;;;1999.90;999.90;;;;;;;;;;6275381;22;20168;-68
2023/04/25 07:32:32;;;;;;;1999.90;999.90;;;;;;;;;;6275310;22;20167;-68
2023/04/25 07:35:18;;;;;;;1999.90;999.90;;;;;;;;;;6274776;22;20249;-68
2023/04/25 07:38:04;;;;;;;1999.90;999.90;;;;;;;;;;6275347;22;20244;-68
2023/04/25 07:40:48;;;;;;;1999.90;999.90;;;;;;;;;;6275197;22;20170;-68
2023/04/25 07:43:34;;;;;;;1999.90;999.90;;;;;;;;;;6274793;22;20205;-68
2023/04/25 07:46:18;;;;;;;1999.90;999.90;;;;;;;;;;6273874;22;20410;-68
2023/04/25 07:49:03;;;;;;;1999.90;999.90;;;;;;;;;;6275623;22;20254;-67
2023/04/25 07:51:49;;;;;;;1999.90;999.90;;;;;;;;;;6275476;22;20556;-68
2023/04/25 07:54:35;;;;;;;1999.90;999.90;;;;;;;;;;6274462;22;20211;-68
2023/04/25 07:57:20;;;;;;;1999.90;999.90;;;;;;;;;;6274906;22;20171;-68
2023/04/25 08:00:09;;;;;;;1999.90;999.90;;;;;;;;;;6275179;22;20235;-68
2023/04/25 08:02:54;;;;;;;1999.90;999.90;;;;;;;;;;6275282;22;20208;-68
2023/04/25 08:05:39;;;;;;;1999.90;999.90;;;;;;;;;;6274861;22;20211;-68
2023/04/25 08:08:25;;;;;;;1999.90;999.90;;;;;;;;;;6275254;22;20171;-68
2023/04/25 08:11:10;;;;;;;1999.90;999.90;;;;;;;;;;6274528;22;20167;-67
2023/04/25 08:13:55;;;;;;;1999.90;999.90;;;;;;;;;;6273706;22;20203;-68
2023/04/25 08:16:40;;;;;;;1999.90;999.90;;;;;;;;;;6275151;22;20206;-68
2023/04/25 08:19:25;;;;;;;1999.90;999.90;;;;;;;;;;6275107;22;20168;-68
2023/04/25 08:22:10;;;;;;;1999.90;999.90;;;;;;;;;;6274685;22;20168;-68
2023/04/25 08:24:56;;;;;;;1999.90;999.90;;;;;;;;;;6274805;22;20161;-68
2023/04/25 08:27:41;;;;;;;1999.90;999.90;;;;;;;;;;6275043;22;20782;-68
2023/04/25 08:30:26;;;;;;;1999.90;999.90;;;;;;;;;;6274960;22;20168;-68
2023/04/25 08:33:11;;;;;;;1999.90;999.90;;;;;;;;;;6274015;22;20368;-67
2023/04/25 08:35:56;;;;;;;1999.90;999.90;;;;;;;;;;6273855;22;20191;-68
2023/04/25 08:38:41;;;;;;;1999.90;999.90;;;;;;;;;;6275040;22;20164;-68
2023/04/25 08:41:28;;;;;;;1999.90;999.90;;;;;;;;;;6273657;22;20625;-68
2023/04/25 08:44:13;;;;;;;1999.90;999.90;;;;;;;;;;6274113;22;20537;-67
2023/04/25 08:46:58;;;;;;;1999.90;999.90;;;;;;;;;;6274253;22;20170;-67
2023/04/25 08:49:45;;;;;;;1999.90;999.90;;;;;;;;;;6273935;22;20256;-67
2023/04/25 08:52:33;;;;;;;1999.90;999.90;;;;;;;;;;6272920;22;20245;-66
2023/04/25 08:55:19;;;;;;;1999.90;999.90;;;;;;;;;;6274733;22;20197;-68
2023/04/25 08:58:05;;;;;;;1999.90;999.90;;;;;;;;;;6273174;22;20169;-67
2023/04/25 09:00:51;;;;;;;1999.90;999.90;;;;;;;;;;6271647;22;20190;-67
2023/04/25 09:03:36;;;;;;;1999.90;999.90;;;;;;;;;;6274334;22;20322;-67
2023/04/25 09:06:21;;;;;;;1999.90;999.90;;;;;;;;;;6273958;22;20786;-67
2023/04/25 09:09:07;;;;;;;1999.90;999.90;;;;;;;;;;6273423;22;20170;-67
2023/04/25 09:11:54;;;;;;;1999.90;999.90;;;;;;;;;;6272785;22;20185;-67
2023/04/25 09:14:42;;;;;;;1999.90;999.90;;;;;;;;;;6273462;22;20206;-68
2023/04/25 09:17:28;;;;;;;1999.90;999.90;;;;;;;;;;6273877;22;20164;-67
2023/04/25 09:20:14;;;;;;;1999.90;999.90;;;;;;;;;;6272953;22;20248;-67
2023/04/25 09:23:04;;;;;;;1999.90;999.90;;;;;;;;;;6271474;22;20375;-67
2023/04/25 09:25:49;;;;;;;1999.90;999.90;;;;;;;;;;6273925;22;20504;-67
2023/04/25 09:28:35;;;;;;;1999.90;999.90;;;;;;;;;;6273670;22;20164;-67
2023/04/25 09:31:24;;;;;;;1999.90;999.90;;;;;;;;;;6274621;22;20168;-67
2023/04/25 09:34:11;;;;;;;1999.90;999.90;;;;;;;;;;6274016;22;20204;-67
2023/04/25 09:36:56;;;;;;;1999.90;999.90;;;;;;;;;;6274552;22;20287;-67
2023/04/25 09:39:41;;;;;;;1999.90;999.90;;;;;;;;;;6274362;22;20244;-67
2023/04/25 09:42:28;;;;;;;1999.90;999.90;;;;;;;;;;6274938;22;20168;-67
2023/04/25 09:45:14;;;;;;;1999.90;999.90;;;;;;;;;;6273269;22;20674;-67
2023/04/25 09:48:03;;;;;;;1999.90;999.90;;;;;;;;;;6273934;22;20167;-67
2023/04/25 09:51:04;;;;;;;1999.90;999.90;;;;;;;;;;6274603;22;20171;-67
2023/04/25 09:53:50;;;;;;;1999.90;999.90;;;;;;;;;;6274529;22;20203;-67
2023/04/25 09:56:36;;;;;;;1999.90;999.90;;;;;;;;;;6270755;22;20740;-68
2023/04/25 09:59:23;;;;;;;1999.90;999.90;;;;;;;;;;6270653;22;20262;-67
2023/04/25 10:02:09;;;;;;;1999.90;999.90;;;;;;;;;;6270831;22;20637;-67
2023/04/25 10:04:55;;;;;;;1999.90;999.90;;;;;;;;;;6271688;22;20165;-68
2023/04/25 10:07:41;;;;;;;1999.90;999.90;;;;;;;;;;6272944;22;20559;-68
2023/04/25 10:10:27;;;;;;;1999.90;999.90;;;;;;;;;;6272799;22;20454;-68
2023/04/25 10:13:14;;;;;;;1999.90;999.90;;;;;;;;;;6273190;22;20271;-68
2023/04/25 10:16:00;;;;;;;1999.90;999.90;;;;;;;;;;6271557;22;20227;-68
2023/04/25 10:18:45;;;;;;;1999.90;999.90;;;;;;;;;;6273915;22;20165;-68
2023/04/25 10:21:32;;;;;;;1999.90;999.90;;;;;;;;;;6272976;22;20642;-68
2023/04/25 10:24:17;;;;;;;1999.90;999.90;;;;;;;;;;6273290;22;20245;-68
2023/04/25 10:27:03;;;;;;;1999.90;999.90;;;;;;;;;;6273393;22;20167;-68
2023/04/25 10:30:00;;;;;;;1999.90;999.90;;;;;;;;;;6273253;22;20210;-68
2023/04/25 10:32:47;;;;;;;1999.90;999.90;;;;;;;;;;6272171;22;20554;-69
2023/04/25 10:35:32;;;;;;;1999.90;999.90;;;;;;;;;;6272893;22;20188;-68
2023/04/25 10:38:19;;;;;;;1999.90;999.90;;;;;;;;;;6273662;22;20500;-68
2023/04/25 10:41:05;;;;;;;1999.90;999.90;;;;;;;;;;6273206;22;20165;-67
2023/04/25 10:43:50;;;;;;;1999.90;999.90;;;;;;;;;;6272981;22;20583;-68
2023/04/25 10:46:35;;;;;;;1999.90;999.90;;;;;;;;;;6271666;22;25070;-67
2023/04/25 10:49:31;;;;;;;1999.90;999.90;;;;;;;;;;6272487;22;20805;-67
2023/04/25 10:52:20;;;;;;;1999.90;999.90;;;;;;;;;;6273698;22;20223;-68
2023/04/25 10:55:07;;;;;;;1999.90;999.90;;;;;;;;;;6273565;22;20189;-68
2023/04/25 10:57:52;;;;;;;1999.90;999.90;;;;;;;;;;6271641;22;20171;-68
2023/04/25 11:00:40;;;;;;;1999.90;999.90;;;;;;;;;;6270229;22;20376;-68
2023/04/25 11:03:25;;;;;;;1999.90;999.90;;;;;;;;;;6272521;22;20206;-67
2023/04/25 11:06:16;;;;;;;1999.90;999.90;;;;;;;;;;6272775;22;20247;-67
2023/04/25 11:09:02;;;;;;;1999.90;999.90;;;;;;;;;;6273610;22;20617;-68
2023/04/25 11:11:56;;;;;;;1999.90;999.90;;;;;;;;;;6273670;22;20504;-68
2023/04/25 11:14:41;;;;;;;1999.90;999.90;;;;;;;;;;6271199;22;20208;-68
2023/04/25 11:17:26;;;;;;;1999.90;999.90;;;;;;;;;;6273308;22;20216;-67
2023/04/25 11:20:13;;;;;;;1999.90;999.90;;;;;;;;;;6274037;22;20215;-67
2023/04/25 11:22:59;;;;;;;1999.90;999.90;;;;;;;;;;6275321;22;20203;-67
2023/04/25 11:25:45;;;;;;;1999.90;999.90;;;;;;;;;;6274932;22;20208;-66
2023/04/25 11:28:31;;;;;;;1999.90;999.90;;;;;;;;;;6275372;22;20169;-67
2023/04/25 11:31:16;;;;;;;1999.90;999.90;;;;;;;;;;6274331;22;20170;-67
2023/04/25 11:34:02;;;;;;;1999.90;999.90;;;;;;;;;;6272948;22;20668;-68
2023/04/25 11:36:47;;;;;;;1999.90;999.90;;;;;;;;;;6274809;22;20190;-68
2023/04/25 11:39:32;;;;;;;1999.90;999.90;;;;;;;;;;6271780;22;20683;-68
2023/04/25 11:42:17;;;;;;;1999.90;999.90;;;;;;;;;;6273010;22;20168;-67
2023/04/25 11:45:04;;;;;;;1999.90;999.90;;;;;;;;;;6272754;22;20510;-68
2023/04/25 11:47:50;;;;;;;1999.90;999.90;;;;;;;;;;6272115;22;20379;-68
2023/04/25 11:50:35;;;;;;;1999.90;999.90;;;;;;;;;;6275015;22;20184;-69
2023/04/25 11:53:20;;;;;;;1999.90;999.90;;;;;;;;;;6273739;22;20206;-67
2023/04/25 11:56:09;;;;;;;1999.90;999.90;;;;;;;;;;6273630;22;20190;-68
2023/04/25 11:58:55;;;;;;;1999.90;999.90;;;;;;;;;;6274994;22;20173;-68
2023/04/25 12:01:42;;;;;;;1999.90;999.90;;;;;;;;;;6274507;22;20167;-68
2023/04/25 12:04:30;;;;;;;1999.90;999.90;;;;;;;;;;6274799;22;20205;-68
2023/04/25 12:07:15;;;;;;;1999.90;999.90;;;;;;;;;;6275243;22;20612;-68
2023/04/25 12:10:00;;;;;;;1999.90;999.90;;;;;;;;;;6273745;22;20508;-70
2023/04/25 12:12:46;;;;;;;1999.90;999.90;;;;;;;;;;6275212;22;20211;-67
2023/04/25 12:15:34;;;;;;;1999.90;999.90;;;;;;;;;;6274734;22;20323;-70
2023/04/25 12:18:25;;;;;;;1999.90;999.90;;;;;;;;;;6275336;22;20320;-68
2023/04/25 12:21:10;;;;;;;1999.90;999.90;;;;;;;;;;6273423;22;20207;-69
2023/04/25 12:23:55;;;;;;;1999.90;999.90;;;;;;;;;;6274782;22;20203;-69
2023/04/25 12:26:51;;;;;;;1999.90;999.90;;;;;;;;;;6275396;22;20161;-69
2023/04/25 12:29:36;;;;;;;1999.90;999.90;;;;;;;;;;6275000;22;20606;-68
2023/04/25 12:32:21;;;;;;;1999.90;999.90;;;;;;;;;;6274568;22;20168;-69
2023/04/25 12:35:08;;;;;;;1999.90;999.90;;;;;;;;;;6274476;22;20551;-69
2023/04/25 12:37:53;;;;;;;1999.90;999.90;;;;;;;;;;6274773;22;20891;-72
2023/04/25 12:40:38;;;;;;;1999.90;999.90;;;;;;;;;;6274435;22;20207;-74
2023/04/25 12:43:23;;;;;;;1999.90;999.90;;;;;;;;;;6275829;22;20280;-73
2023/04/25 12:46:08;;;;;;;1999.90;999.90;;;;;;;;;;6275091;22;20160;-73
2023/04/25 12:48:54;;;;;;;1999.90;999.90;;;;;;;;;;6274842;22;20218;-73
2023/04/25 12:51:41;;;;;;;1999.90;999.90;;;;;;;;;;6274192;22;20219;-73
2023/04/25 12:54:26;;;;;;;1999.90;999.90;;;;;;;;;;6274301;22;20584;-73
2023/04/25 12:57:11;;;;;;;1999.90;999.90;;;;;;;;;;6274187;22;20188;-72
2023/04/25 12:59:56;;;;;;;1999.90;999.90;;;;;;;;;;6274229;22;20168;-73
2023/04/25 13:02:41;;;;;;;1999.90;999.90;;;;;;;;;;6274963;22;20255;-72
2023/04/25 13:05:26;;;;;;;1999.90;999.90;;;;;;;;;;6275232;22;20164;-71
2023/04/25 13:08:12;;;;;;;1999.90;999.90;;;;;;;;;;6275221;22;20168;-72
2023/04/25 13:10:57;;;;;;;1999.90;999.90;;;;;;;;;;6272908;22;20379;-72
2023/04/25 13:13:42;;;;;;;1999.90;999.90;;;;;;;;;;6273096;22;20909;-72
2023/04/25 13:16:28;;;;;;;1999.90;999.90;;;;;;;;;;6274782;22;20192;-71
2023/04/25 13:19:13;;;;;;;1999.90;999.90;;;;;;;;;;6275315;22;20164;-72
2023/04/25 13:21:58;;;;;;;1999.90;999.90;;;;;;;;;;6275380;22;20170;-71
2023/04/25 13:24:45;;;;;;;1999.90;999.90;;;;;;;;;;6273993;22;20358;-72
2023/04/25 13:27:32;;;;;;;1999.90;999.90;;;;;;;;;;6274858;22;20244;-73
2023/04/25 13:30:17;;;;;;;1999.90;999.90;;;;;;;;;;6274722;22;20168;-73
2023/04/25 13:33:02;;;;;;;1999.90;999.90;;;;;;;;;;6275049;22;20275;-71
2023/04/25 13:35:53;;;;;;;1999.90;999.90;;;;;;;;;;6274493;22;20535;-72
2023/04/25 13:38:38;;;;;;;1999.90;999.90;;;;;;;;;;6275140;22;20223;-72
2023/04/25 13:41:25;;;;;;;1999.90;999.90;;;;;;;;;;6274694;22;20549;-73
2023/04/25 13:44:10;;;;;;;1999.90;999.90;;;;;;;;;;6272697;22;20216;-71
2023/04/25 13:46:55;;;;;;;1999.90;999.90;;;;;;;;;;6273560;22;20209;-72
2023/04/25 13:49:40;;;;;;;1999.90;999.90;;;;;;;;;;6273607;22;20177;-72
2023/04/25 13:52:27;;;;;;;1999.90;999.90;;;;;;;;;;6274593;22;20246;-71
2023/04/25 13:55:12;;;;;;;1999.90;999.90;;;;;;;;;;6276449;22;20675;-73
2023/04/25 13:57:59;;;;;;;1999.90;999.90;;;;;;;;;;6276399;22;20372;-73
2023/04/25 14:00:45;;;;;;;1999.90;999.90;;;;;;;;;;6274733;22;20167;-73
2023/04/25 14:03:31;;;;;;;1999.90;999.90;;;;;;;;;;6274129;22;20228;-72
2023/04/25 14:06:22;;;;;;;1999.90;999.90;;;;;;;;;;6273508;22;20627;-70
2023/04/25 14:09:09;;;;;;;1999.90;999.90;;;;;;;;;;6272620;22;20167;-72
2023/04/25 14:11:54;;;;;;;1999.90;999.90;;;;;;;;;;6274093;22;20365;-71
2023/04/25 14:14:41;;;;;;;1999.90;999.90;;;;;;;;;;6273680;22;20206;-72
2023/04/25 14:17:26;;;;;;;1999.90;999.90;;;;;;;;;;6274052;22;20240;-71
2023/04/25 14:20:11;;;;;;;1999.90;999.90;;;;;;;;;;6273571;22;20181;-71
2023/04/25 14:22:57;;;;;;;1999.90;999.90;;;;;;;;;;6273375;22;20199;-71
2023/04/25 14:25:42;;;;;;;1999.90;999.90;;;;;;;;;;6272851;22;20172;-70
2023/04/25 14:28:28;;;;;;;1999.90;999.90;;;;;;;;;;6273536;22;20558;-71
2023/04/25 14:31:14;;;;;;;1999.90;999.90;;;;;;;;;;6273959;22;20231;-71
2023/04/25 14:33:59;;;;;;;1999.90;999.90;;;;;;;;;;6273084;22;20203;-71
2023/04/25 14:36:44;;;;;;;1999.90;999.90;;;;;;;;;;6273849;22;20652;-71
2023/04/25 14:39:29;;;;;;;1999.90;999.90;;;;;;;;;;6273972;22;20215;-71
2023/04/25 14:42:14;;;;;;;1999.90;999.90;;;;;;;;;;6273856;22;20168;-71
2023/04/25 14:44:59;;;;;;;1999.90;999.90;;;;;;;;;;6273479;22;20510;-72
2023/04/25 14:47:45;;;;;;;1999.90;999.90;;;;;;;;;;6274116;22;20160;-71
2023/04/25 14:50:30;;;;;;;1999.90;999.90;;;;;;;;;;6274002;22;20173;-71
2023/04/25 14:53:15;;;;;;;1999.90;999.90;;;;;;;;;;6273384;22;20250;-71
2023/04/25 14:56:00;;;;;;;1999.90;999.90;;;;;;;;;;6272985;22;20512;-71
2023/04/25 14:58:46;;;;;;;1999.90;999.90;;;;;;;;;;6275860;22;20168;-71
2023/04/25 15:01:31;;;;;;;1999.90;999.90;;;;;;;;;;6274994;22;20375;-72
2023/04/25 15:04:18;;;;;;;1999.90;999.90;;;;;;;;;;6272842;22;20209;-72
2023/04/25 15:07:03;;;;;;;1999.90;999.90;;;;;;;;;;6272866;22;20160;-71
2023/04/25 15:09:48;;;;;;;1999.90;999.90;;;;;;;;;;6273704;22;20608;-72
2023/04/25 15:12:33;;;;;;;1999.90;999.90;;;;;;;;;;6272769;22;20208;-72
2023/04/25 15:15:18;;;;;;;1999.90;999.90;;;;;;;;;;6273542;22;20171;-72
2023/04/25 15:18:03;;;;;;;1999.90;999.90;;;;;;;;;;6273044;22;20516;-72
2023/04/25 15:20:50;;;;;;;1999.90;999.90;;;;;;;;;;6273453;22;20178;-72
2023/04/25 15:23:35;;;;;;;1999.90;999.90;;;;;;;;;;6272856;22;20567;-72
2023/04/25 15:26:21;;;;;;;1999.90;999.90;;;;;;;;;;6275192;22;20232;-72
2023/04/25 15:29:06;;;;;;;1999.90;999.90;;;;;;;;;;6275554;22;20169;-73
2023/04/25 15:31:51;;;;;;;1999.90;999.90;;;;;;;;;;6273444;22;20195;-73
2023/04/25 15:34:36;;;;;;;1999.90;999.90;;;;;;;;;;6273585;22;20371;-72
2023/04/25 15:37:23;;;;;;;1999.90;999.90;;;;;;;;;;6275275;22;20209;-71
2023/04/25 15:40:09;;;;;;;1999.90;999.90;;;;;;;;;;6275622;22;20214;-72
2023/04/25 15:42:54;;;;;;;1999.90;999.90;;;;;;;;;;6275539;22;20201;-72
2023/04/25 15:45:40;;;;;;;1999.90;999.90;;;;;;;;;;6275043;22;20507;-72
2023/04/25 15:48:25;;;;;;;1999.90;999.90;;;;;;;;;;6273625;22;20456;-73
2023/04/25 15:51:10;;;;;;;1999.90;999.90;;;;;;;;;;6275945;22;20168;-72
2023/04/25 15:53:56;;;;;;;1999.90;999.90;;;;;;;;;;6275395;22;20254;-69
2023/04/25 15:56:41;;;;;;;1999.90;999.90;;;;;;;;;;6272446;22;20710;-72
2023/04/25 15:59:26;;;;;;;1999.90;999.90;;;;;;;;;;6273195;22;20165;-70
2023/04/25 16:02:13;;;;;;;1999.90;999.90;;;;;;;;;;6272808;22;20643;-74
2023/04/25 16:04:58;;;;;;;1999.90;999.90;;;;;;;;;;6273512;22;20169;-73
2023/04/25 16:07:43;;;;;;;1999.90;999.90;;;;;;;;;;6277309;22;20207;-74
2023/04/25 16:10:29;;;;;;;1999.90;999.90;;;;;;;;;;6272791;22;20691;-73
2023/04/25 16:13:15;;;;;;;1999.90;999.90;;;;;;;;;;6272893;22;20323;-71
2023/04/25 16:16:00;;;;;;;1999.90;999.90;;;;;;;;;;6273350;22;20505;-72
2023/04/25 16:18:45;;;;;;;1999.90;999.90;;;;;;;;;;6272859;22;20367;-71
2023/04/25 16:21:30;;;;;;;1999.90;999.90;;;;;;;;;;6272856;22;20168;-72
2023/04/25 16:24:15;;;;;;;1999.90;999.90;;;;;;;;;;6273221;22;20280;-71
2023/04/25 16:27:02;;;;;;;1999.90;999.90;;;;;;;;;;6272977;22;20614;-72
2023/04/25 16:29:48;;;;;;;1999.90;999.90;;;;;;;;;;6272528;22;20524;-72
2023/04/25 16:32:33;;;;;;;1999.90;999.90;;;;;;;;;;6272620;22;20218;-72
2023/04/25 16:35:18;;;;;;;1999.90;999.90;;;;;;;;;;6272206;22;20164;-69
2023/04/25 16:38:03;;;;;;;1999.90;999.90;;;;;;;;;;6271698;22;20187;-70
2023/04/25 16:40:48;;;;;;;1999.90;999.90;;;;;;;;;;6272983;22;20256;-70
2023/04/25 16:43:35;;;;;;;1999.90;999.90;;;;;;;;;;6274684;22;20203;-69
2023/04/25 16:46:20;;;;;;;1999.90;999.90;;;;;;;;;;6275245;22;20180;-70
2023/04/25 16:49:05;;;;;;;1999.90;999.90;;;;;;;;;;6274977;22;20167;-70
2023/04/25 16:51:50;;;;;;;1999.90;999.90;;;;;;;;;;6275380;22;20211;-71
2023/04/25 16:54:36;;;;;;;1999.90;999.90;;;;;;;;;;6271386;22;20200;-71
2023/04/25 16:57:21;;;;;;;1999.90;999.90;;;;;;;;;;6272098;22;20646;-73
2023/04/25 17:00:09;;;;;;;1999.90;999.90;;;;;;;;;;6272732;22;20168;-71
2023/04/25 17:02:54;;;;;;;1999.90;999.90;;;;;;;;;;6271912;22;20261;-72
2023/04/25 17:05:39;;;;;;;1999.90;999.90;;;;;;;;;;6272410;22;20223;-70
2023/04/25 17:08:24;;;;;;;1999.90;999.90;;;;;;;;;;6272819;22;20244;-71
2023/04/25 17:11:09;;;;;;;1999.90;999.90;;;;;;;;;;6271771;22;20172;-71
2023/04/25 17:13:54;;;;;;;1999.90;999.90;;;;;;;;;;6272205;22;20734;-71
2023/04/25 17:16:41;;;;;;;1999.90;999.90;;;;;;;;;;6272385;22;20210;-72
2023/04/25 17:19:26;;;;;;;1999.90;999.90;;;;;;;;;;6271793;22;20211;-70
2023/04/25 17:22:11;;;;;;;1999.90;999.90;;;;;;;;;;6270299;22;20473;-73
2023/04/25 17:24:56;;;;;;;1999.90;999.90;;;;;;;;;;6271786;22;20168;-72
2023/04/25 17:27:41;;;;;;;1999.90;999.90;;;;;;;;;;6272900;22;20621;-72